Time;durP1;ratioP1;P1;durP2;ratioP2;P2;SDS_P1;SDS_P2;PMS_P1;PMS_P2;Temp;Humidity;BMP_temperature;BMP_pressure;BME280_temperature;BME280_humidity;BME280_pressure;Samples;Min_cycle;Max_cycle;Signal;HPM_P1;HPM_P2
2023/07/24 00:23:50;;;;;;;4.87;4.47;;;19.30;1.00;;;;;;6239626;22;1588370;-88
2023/07/24 00:26:17;;;;;;;4.90;3.90;;;;;;;;;;6294760;22;20166;-88
2023/07/24 00:28:47;;;;;;;4.63;3.80;;;;;;;;;;6290195;22;20408;-89
2023/07/24 00:31:19;;;;;;;4.70;3.90;;;19.70;1.00;;;;;;6285570;22;20408;-88
2023/07/24 00:33:46;;;;;;;5.83;4.40;;;;;;;;;;6255811;23;20436;-89
2023/07/24 00:36:14;;;;;;;5.33;3.80;;;;;;;;;;6254204;23;20394;-87
2023/07/24 00:38:41;;;;;;;4.03;3.63;;;;;;;;;;6254094;23;20447;-88
2023/07/24 00:41:09;;;;;;;4.20;3.43;;;19.80;1.00;;;;;;6254071;23;20723;-88
2023/07/24 00:43:37;;;;;;;6.00;3.70;;;;;;;;;;6254875;23;20429;-88
2023/07/24 00:46:04;;;;;;;6.60;3.60;;;;;;;;;;6264166;22;20926;-88
2023/07/24 00:48:34;;;;;;;4.50;4.10;;;;;;;;;;6255099;23;20406;-88
2023/07/24 00:51:01;;;;;;;3.90;3.47;;;;;;;;;;6254441;23;20417;-89
2023/07/24 00:53:28;;;;;;;4.90;3.90;;;19.70;1.00;;;;;;6253437;23;20452;-89
2023/07/24 00:55:56;;;;;;;4.43;3.57;;;;;;;;;;6269131;23;20406;-89
2023/07/24 00:58:24;;;;;;;3.43;3.13;;;19.70;1.00;;;;;;6256794;23;20434;-89
2023/07/24 01:00:52;;;;;;;8.90;3.83;;;;;;;;;;6256239;23;20390;-88
2023/07/24 01:03:19;;;;;;;5.70;3.60;;;;;;;;;;6254685;23;20437;-88
2023/07/24 01:05:46;;;;;;;4.20;3.80;;;;;;;;;;6254556;23;20419;-89
2023/07/24 01:08:13;;;;;;;4.43;3.90;;;;;;;;;;6255617;23;20444;-88
2023/07/24 01:10:43;;;;;;;3.53;3.23;;;19.90;1.00;;;;;;6255255;23;20412;-89
2023/07/24 01:13:16;;;;;;;5.73;3.47;;;20.50;1.00;;;;;;6254218;23;20468;-88
2023/07/24 01:15:51;;;;;;;4.40;3.47;;;19.60;1.00;;;;;;6257290;23;20400;-88
2023/07/24 01:18:20;;;;;;;4.60;3.37;;;19.60;1.00;;;;;;6259302;23;20440;-89
2023/07/24 01:20:52;;;;;;;4.30;3.90;;;19.60;1.00;;;;;;6260705;23;20436;-89
2023/07/24 01:23:32;;;;;;;4.03;3.63;;;19.60;1.00;;;;;;6255200;22;20465;-89
2023/07/24 01:26:03;;;;;;;3.50;3.03;;;19.70;1.00;;;;;;6253835;23;20397;-89
2023/07/24 01:28:31;;;;;;;5.00;3.30;;;;;;;;;;6252663;23;20740;-89
2023/07/24 01:30:58;;;;;;;4.20;3.10;;;19.50;1.00;;;;;;6254642;23;20978;-87
2023/07/24 01:33:25;;;;;;;3.30;3.00;;;19.50;1.00;;;;;;6256284;23;20829;-90
2023/07/24 01:35:56;;;;;;;7.17;3.67;;;19.40;1.00;;;;;;6263501;23;20413;-89
2023/07/24 01:38:24;;;;;;;6.00;3.70;;;19.40;1.00;;;;;;6264793;23;20430;-90
2023/07/24 01:40:52;;;;;;;9.00;3.20;;;19.50;1.00;;;;;;6264136;23;20406;-87
2023/07/24 01:43:21;;;;;;;4.13;3.70;;;19.10;1.00;;;;;;6259386;23;20450;-89
2023/07/24 01:45:48;;;;;;;5.30;2.63;;;;;;;;;;6266388;22;20402;-88
2023/07/24 01:48:15;;;;;;;3.30;3.00;;;19.40;1.00;;;;;;6258191;23;20492;-88
2023/07/24 01:50:42;;;;;;;3.17;2.87;;;19.40;1.00;;;;;;6268465;22;20405;-88
2023/07/24 01:53:09;;;;;;;5.47;3.57;;;19.40;1.00;;;;;;6275450;22;20425;-87
2023/07/24 01:55:36;;;;;;;3.97;3.63;;;19.40;1.00;;;;;;6275433;22;20390;-88
2023/07/24 01:58:03;;;;;;;5.37;3.97;;;19.40;1.00;;;;;;6268899;22;20456;-88
2023/07/24 02:00:31;;;;;;;3.80;3.50;;;19.40;1.00;;;;;;6255085;23;20469;-87
2023/07/24 02:02:58;;;;;;;7.80;3.97;;;19.30;1.00;;;;;;6259976;23;20449;-88
2023/07/24 02:05:25;;;;;;;5.20;3.67;;;19.20;1.00;;;;;;6274758;22;20398;-88
2023/07/24 02:07:52;;;;;;;4.97;4.03;;;19.10;1.00;;;;;;6256796;23;20443;-88
2023/07/24 02:10:19;;;;;;;4.17;3.87;;;19.50;1.00;;;;;;6254277;23;20452;-88
2023/07/24 02:12:46;;;;;;;6.73;3.80;;;19.40;1.00;;;;;;6253655;23;20468;-88
2023/07/24 02:15:13;;;;;;;4.47;3.80;;;19.40;1.00;;;;;;6254332;23;20424;-88
2023/07/24 02:17:42;;;;;;;4.90;4.50;;;19.70;1.00;;;;;;6253604;23;20961;-88
2023/07/24 02:20:09;;;;;;;6.50;5.17;;;19.50;1.00;;;;;;6260729;23;20421;-88
2023/07/24 02:22:36;;;;;;;6.50;4.90;;;19.50;1.00;;;;;;6256154;22;20433;-88
2023/07/24 02:25:03;;;;;;;5.10;4.10;;;19.50;1.00;;;;;;6253539;23;20484;-88
2023/07/24 02:27:34;;;;;;;6.30;4.53;;;19.50;1.00;;;;;;6253374;23;20815;-88
2023/07/24 02:30:01;;;;;;;6.17;4.17;;;19.50;1.00;;;;;;6253650;23;20746;-88
2023/07/24 02:32:28;;;;;;;4.67;4.00;;;19.60;1.00;;;;;;6253840;23;20460;-88
2023/07/24 02:34:56;;;;;;;4.87;3.13;;;19.70;99.90;;;;;;6254030;23;20472;-88
2023/07/24 02:37:23;;;;;;;5.63;3.63;;;19.50;1.00;;;;;;6258478;23;20417;-88
2023/07/24 02:39:53;;;;;;;4.40;3.80;;;18.90;1.00;;;;;;6274772;22;20390;-87
2023/07/24 02:42:23;;;;;;;4.33;3.53;;;19.40;97.10;;;;;;6267491;22;20460;-89
2023/07/24 02:44:53;;;;;;;6.43;4.30;;;19.30;1.00;;;;;;6255440;23;20417;-87
2023/07/24 02:47:20;;;;;;;3.87;3.17;;;19.20;99.90;;;;;;6253570;23;20398;-87
2023/07/24 02:49:47;;;;;;;9.90;3.37;;;19.70;99.90;;;;;;6253214;23;20417;-87
2023/07/24 02:52:15;;;;;;;3.33;3.03;;;19.60;1.00;;;;;;6252876;23;20436;-87
2023/07/24 02:54:42;;;;;;;3.90;3.43;;;19.50;1.00;;;;;;6253023;23;20807;-87
2023/07/24 02:57:09;;;;;;;4.73;3.53;;;19.70;1.00;;;;;;6253452;23;20414;-88
2023/07/24 02:59:36;;;;;;;5.53;3.47;;;19.60;1.00;;;;;;6257314;23;20461;-88
2023/07/24 03:02:06;;;;;;;5.97;3.50;;;19.50;99.90;;;;;;6258066;23;20574;-87
2023/07/24 03:04:36;;;;;;;3.70;3.40;;;19.60;99.90;;;;;;6255506;23;20959;-88
2023/07/24 03:07:03;;;;;;;3.93;3.27;;;;;;;;;;6260495;23;20406;-87
2023/07/24 03:09:31;;;;;;;4.50;3.10;;;19.60;1.00;;;;;;6270188;23;20410;-87
2023/07/24 03:11:58;;;;;;;3.43;2.80;;;19.60;1.00;;;;;;6270972;23;20422;-87
2023/07/24 03:14:27;;;;;;;5.60;3.03;;;19.50;1.00;;;;;;6266288;23;20424;-88
2023/07/24 03:16:54;;;;;;;2.70;2.50;;;19.60;1.00;;;;;;6273922;22;20377;-87
2023/07/24 03:19:22;;;;;;;3.60;2.63;;;19.90;99.90;;;;;;6273154;22;20480;-88
2023/07/24 03:21:50;;;;;;;3.33;2.60;;;19.60;1.00;;;;;;6256823;23;20532;-89
2023/07/24 03:24:20;;;;;;;4.10;2.70;;;19.80;99.90;;;;;;6226676;23;20422;-89
2023/07/24 03:26:49;;;;;;;2.90;2.70;;;19.40;99.90;;;;;;6234427;23;20444;-89
2023/07/24 03:29:21;;;;;;;3.47;2.83;;;19.60;1.00;;;;;;6223688;23;20394;-89
2023/07/24 03:31:49;;;;;;;3.60;3.00;;;19.60;1.00;;;;;;6222881;23;20434;-89
2023/07/24 03:34:17;;;;;;;3.30;3.00;;;;;;;;;;6222270;23;20425;-88
2023/07/24 03:36:45;;;;;;;4.70;2.37;;;;;;;;;;6222450;23;20505;-88
2023/07/24 03:39:17;;;;;;;2.93;2.63;;;19.60;1.00;;;;;;6223323;23;20443;-88
2023/07/24 03:41:45;;;;;;;3.83;2.70;;;;;;;;;;6223573;23;20415;-88
2023/07/24 03:44:17;;;;;;;3.10;2.17;;;19.90;99.90;;;;;;6221795;23;20767;-87
2023/07/24 03:46:44;;;;;;;4.00;3.00;;;;;;;;;;6231706;23;20401;-88
2023/07/24 03:49:12;;;;;;;3.77;3.30;;;;;;;;;;6221995;23;20406;-88
2023/07/24 03:51:39;;;;;;;3.10;2.83;;;;;;;;;;6230566;23;20450;-88
2023/07/24 03:54:05;;;;;;;3.27;2.20;;;19.60;99.90;;;;;;6227593;23;20434;-88
2023/07/24 03:56:32;;;;;;;2.70;2.40;;;19.60;1.00;;;;;;6223493;23;20489;-88
2023/07/24 03:58:59;;;;;;;5.80;2.77;;;19.60;1.00;;;;;;6223492;23;20442;-88
2023/07/24 04:01:27;;;;;;;4.10;2.60;;;19.50;99.90;;;;;;6230214;23;20437;-88
2023/07/24 04:03:54;;;;;;;3.83;2.10;;;19.60;67.80;;;;;;6242648;23;20409;-88
2023/07/24 04:06:21;;;;;;;3.43;2.77;;;19.50;99.90;;;;;;6244059;23;20390;-88
2023/07/24 04:08:48;;;;;;;2.90;2.43;;;19.30;1.00;;;;;;6240331;23;20405;-88
2023/07/24 04:11:15;;;;;;;2.33;2.13;;;19.30;1.00;;;;;;6229147;23;20408;-88
2023/07/24 04:13:42;;;;;;;3.20;2.90;;;;;;;;;;6239967;23;20422;-89
2023/07/24 04:16:09;;;;;;;4.83;2.10;;;19.10;1.00;;;;;;6243783;23;20419;-88
2023/07/24 04:18:37;;;;;;;2.80;2.50;;;19.10;1.00;;;;;;6239374;23;20469;-88
2023/07/24 04:21:03;;;;;;;2.73;2.40;;;19.10;1.00;;;;;;6229562;23;20417;-88
2023/07/24 04:23:30;;;;;;;2.80;2.60;;;19.10;99.90;;;;;;6230011;23;20430;-88
2023/07/24 04:25:56;;;;;;;3.60;2.63;;;19.30;99.90;;;;;;6233971;23;20176;-88
2023/07/24 04:28:23;;;;;;;3.90;2.60;;;19.30;99.90;;;;;;6233278;23;20737;-88
2023/07/24 04:30:50;;;;;;;2.93;2.73;;;19.30;9.60;;;;;;6224222;23;20485;-88
2023/07/24 04:33:17;;;;;;;3.07;2.20;;;19.40;14.60;;;;;;6224358;23;20461;-88
2023/07/24 04:35:48;;;;;;;2.60;2.40;;;19.40;1.00;;;;;;6224382;23;20482;-88
2023/07/24 04:38:15;;;;;;;2.17;2.03;;;19.50;1.00;;;;;;6223685;23;20422;-89
2023/07/24 04:40:45;;;;;;;3.30;2.03;;;19.50;1.00;;;;;;6224608;23;20445;-88
2023/07/24 04:43:12;;;;;;;1.77;1.63;;;;;;;;;;6223832;23;20430;-88
2023/07/24 04:45:39;;;;;;;2.53;2.10;;;;;;;;;;6222700;23;20732;-88
2023/07/24 04:48:06;;;;;;;2.30;2.10;;;19.60;1.00;;;;;;6235957;23;20490;-88
2023/07/24 04:50:33;;;;;;;2.70;2.00;;;19.70;1.00;;;;;;6229519;23;20402;-88
2023/07/24 04:53:02;;;;;;;5.10;3.60;;;19.80;1.00;;;;;;6238007;23;20452;-88
2023/07/24 04:55:28;;;;;;;3.17;2.67;;;19.80;1.00;;;;;;6224634;23;20406;-88
2023/07/24 04:57:55;;;;;;;2.27;1.80;;;19.80;99.90;;;;;;6223439;23;20807;-87
2023/07/24 05:00:22;;;;;;;1.90;1.63;;;19.80;99.90;;;;;;6222136;23;20410;-87
2023/07/24 05:02:49;;;;;;;4.40;2.10;;;20.00;99.90;;;;;;6222613;23;20526;-87
2023/07/24 05:05:16;;;;;;;2.80;2.60;;;20.00;99.90;;;;;;6227531;23;20417;-86
2023/07/24 05:07:43;;;;;;;2.50;2.30;;;20.10;99.90;;;;;;6221991;23;20462;-86
2023/07/24 05:10:13;;;;;;;2.50;1.63;;;20.10;99.90;;;;;;6221575;23;20787;-87
2023/07/24 05:12:46;;;;;;;1.83;1.73;;;20.10;99.90;;;;;;6221656;23;20465;-86
2023/07/24 05:15:12;;;;;;;2.90;2.60;;;20.20;99.90;;;;;;6220796;23;20458;-87
2023/07/24 05:17:39;;;;;;;2.60;1.73;;;20.20;99.90;;;;;;6221228;23;20740;-86
2023/07/24 05:20:08;;;;;;;2.40;2.20;;;20.20;99.90;;;;;;6221159;23;20430;-86
2023/07/24 05:22:34;;;;;;;1.93;1.73;;;20.30;99.90;;;;;;6224195;23;20498;-85
2023/07/24 05:25:01;;;;;;;1.83;1.73;;;20.40;99.90;;;;;;6224780;23;20499;-85
2023/07/24 05:27:30;;;;;;;2.30;2.10;;;20.50;99.90;;;;;;6225689;23;20990;-87
2023/07/24 05:29:57;;;;;;;4.37;2.60;;;20.50;99.90;;;;;;6226448;23;20442;-86
2023/07/24 05:32:24;;;;;;;3.43;1.90;;;20.70;99.90;;;;;;6232312;23;20496;-87
2023/07/24 05:34:50;;;;;;;1.70;1.60;;;20.70;12.40;;;;;;6223189;23;20489;-86
2023/07/24 05:37:18;;;;;;;2.00;1.90;;;20.70;99.90;;;;;;6229948;23;20493;-87
2023/07/24 05:39:44;;;;;;;3.20;2.03;;;20.80;99.90;;;;;;6244320;23;20406;-86
2023/07/24 05:42:11;;;;;;;2.13;1.93;;;21.10;83.50;;;;;;6241229;23;20411;-86
2023/07/24 05:44:39;;;;;;;2.43;2.00;;;20.70;87.40;;;;;;6229000;23;20430;-86
2023/07/24 05:47:06;;;;;;;2.60;2.00;;;20.80;99.90;;;;;;6231531;23;20409;-87
2023/07/24 05:49:33;;;;;;;2.80;2.13;;;20.80;99.90;;;;;;6228567;23;20431;-86
2023/07/24 05:52:00;;;;;;;1.60;1.50;;;20.90;60.00;;;;;;6233664;23;20509;-87
2023/07/24 05:54:27;;;;;;;2.73;2.30;;;21.00;1.00;;;;;;6235333;23;20471;-88
2023/07/24 05:56:54;;;;;;;2.60;1.80;;;21.00;99.90;;;;;;6230710;23;20437;-88
2023/07/24 05:59:21;;;;;;;2.27;1.80;;;21.10;13.10;;;;;;6227221;23;20442;-89
2023/07/24 06:01:49;;;;;;;2.33;1.97;;;20.90;1.00;;;;;;6224195;23;20438;-88
2023/07/24 06:04:16;;;;;;;2.10;1.90;;;21.50;1.00;;;;;;6225046;23;20413;-87
2023/07/24 06:06:44;;;;;;;2.93;1.90;;;21.20;36.50;;;;;;6223975;23;20405;-87
2023/07/24 06:09:10;;;;;;;4.87;2.20;;;21.30;99.90;;;;;;6224496;23;20442;-87
2023/07/24 06:11:37;;;;;;;1.87;1.77;;;21.30;1.00;;;;;;6226587;23;20972;-87
2023/07/24 06:14:04;;;;;;;2.67;2.00;;;21.30;1.00;;;;;;6226373;23;20407;-87
2023/07/24 06:16:31;;;;;;;2.50;2.10;;;21.40;1.00;;;;;;6224881;23;20430;-87
2023/07/24 06:18:59;;;;;;;3.90;3.43;;;21.50;99.90;;;;;;6233978;23;20414;-87
2023/07/24 06:21:26;;;;;;;3.20;2.90;;;21.70;99.90;;;;;;6244521;23;20481;-87
2023/07/24 06:23:53;;;;;;;3.93;1.87;;;21.50;1.00;;;;;;6244759;23;20418;-86
2023/07/24 06:26:20;;;;;;;2.50;2.30;;;21.70;99.90;;;;;;6228702;23;20476;-87
2023/07/24 06:28:46;;;;;;;2.57;2.37;;;21.70;90.60;;;;;;6224898;23;20722;-88
2023/07/24 06:31:13;;;;;;;3.00;2.43;;;21.70;1.00;;;;;;6221542;23;20418;-87
2023/07/24 06:33:40;;;;;;;4.80;3.70;;;21.80;1.00;;;;;;6237346;23;20427;-87
2023/07/24 06:36:11;;;;;;;2.90;2.70;;;21.80;1.00;;;;;;6239215;23;20817;-87
2023/07/24 06:38:38;;;;;;;2.77;2.57;;;21.80;1.00;;;;;;6235302;23;20746;-87
2023/07/24 06:41:05;;;;;;;2.90;2.70;;;21.70;1.00;;;;;;6224932;23;20469;-88
2023/07/24 06:43:31;;;;;;;4.63;2.93;;;21.90;1.00;;;;;;6222482;23;20449;-87
2023/07/24 06:45:58;;;;;;;5.93;3.20;;;21.90;1.00;;;;;;6222310;23;20971;-87
2023/07/24 06:48:25;;;;;;;4.10;2.73;;;22.00;1.00;;;;;;6224072;23;20472;-87
2023/07/24 06:50:52;;;;;;;3.40;2.80;;;22.00;3.50;;;;;;6233358;23;20442;-87
2023/07/24 06:53:20;;;;;;;2.97;2.77;;;22.10;1.00;;;;;;6242673;23;20426;-87
2023/07/24 06:55:47;;;;;;;2.70;2.50;;;22.60;99.90;;;;;;6241803;23;20413;-86
2023/07/24 06:58:18;;;;;;;3.27;2.97;;;22.30;1.00;;;;;;6221347;23;20407;-86
2023/07/24 07:00:44;;;;;;;3.50;3.20;;;22.40;1.00;;;;;;6221776;23;20466;-87
2023/07/24 07:03:13;;;;;;;2.90;2.70;;;22.40;1.00;;;;;;6222019;23;20426;-87
2023/07/24 07:05:40;;;;;;;3.17;2.87;;;;;;;;;;6221238;23;20405;-87
2023/07/24 07:08:07;;;;;;;3.73;3.40;;;22.60;1.00;;;;;;6221088;23;20437;-87
2023/07/24 07:10:35;;;;;;;3.23;2.93;;;22.60;1.00;;;;;;6228318;23;20442;-87
2023/07/24 07:13:02;;;;;;;3.43;3.13;;;;;;;;;;6225260;23;20435;-87
2023/07/24 07:15:29;;;;;;;4.33;3.93;;;22.60;1.00;;;;;;6226145;23;20441;-87
2023/07/24 07:17:58;;;;;;;4.43;3.00;;;22.70;1.00;;;;;;6222666;23;20411;-88
2023/07/24 07:20:25;;;;;;;5.27;4.00;;;22.70;1.00;;;;;;6221796;23;20424;-88
2023/07/24 07:22:52;;;;;;;3.57;3.27;;;22.70;1.00;;;;;;6220370;23;20521;-88
2023/07/24 07:25:19;;;;;;;2.83;2.57;;;22.70;1.00;;;;;;6221800;23;20505;-87
2023/07/24 07:27:47;;;;;;;3.67;3.30;;;22.80;1.00;;;;;;6220485;23;20448;-88
2023/07/24 07:30:14;;;;;;;4.50;3.47;;;22.80;1.00;;;;;;6221318;23;20538;-86
2023/07/24 07:32:41;;;;;;;4.03;3.37;;;22.90;1.00;;;;;;6221145;23;20431;-86
2023/07/24 07:35:08;;;;;;;3.30;3.10;;;22.90;1.00;;;;;;6220602;23;20407;-87
2023/07/24 07:37:35;;;;;;;6.43;3.63;;;22.90;1.00;;;;;;6219583;23;20490;-86
2023/07/24 07:40:02;;;;;;;4.17;3.63;;;23.00;1.00;;;;;;6221174;23;20416;-86
2023/07/24 07:42:29;;;;;;;3.87;3.50;;;22.90;1.00;;;;;;6234542;23;20450;-86
2023/07/24 07:44:57;;;;;;;3.53;3.23;;;23.00;1.00;;;;;;6227301;23;20441;-86
2023/07/24 07:47:24;;;;;;;3.83;2.80;;;23.10;1.00;;;;;;6222042;23;20406;-85
2023/07/24 07:49:51;;;;;;;7.27;2.93;;;23.10;1.00;;;;;;6222023;23;20438;-86
2023/07/24 07:52:18;;;;;;;3.30;3.00;;;23.20;1.00;;;;;;6223141;23;20807;-87
2023/07/24 07:54:47;;;;;;;4.10;3.30;;;23.60;99.90;;;;;;6222908;23;20398;-87
2023/07/24 07:57:15;;;;;;;3.83;3.27;;;23.30;1.00;;;;;;6222633;23;20402;-87
2023/07/24 07:59:41;;;;;;;9.57;4.60;;;23.40;1.00;;;;;;6222022;23;20405;-86
2023/07/24 08:02:10;;;;;;;3.00;2.80;;;23.40;1.00;;;;;;6227720;23;20465;-87
2023/07/24 08:04:37;;;;;;;3.50;3.20;;;23.40;1.00;;;;;;6225544;23;20877;-86
2023/07/24 08:07:04;;;;;;;4.07;3.23;;;23.50;1.00;;;;;;6224964;23;20433;-88
2023/07/24 08:09:32;;;;;;;4.23;3.90;;;23.60;1.00;;;;;;6223848;23;20481;-87
2023/07/24 08:11:59;;;;;;;3.17;2.77;;;;;;;;;;6223211;23;20444;-86
2023/07/24 08:14:26;;;;;;;3.60;2.40;;;23.60;1.00;;;;;;6221591;23;20437;-87
2023/07/24 08:16:53;;;;;;;2.80;2.60;;;23.80;1.00;;;;;;6223047;23;20485;-86
2023/07/24 08:19:22;;;;;;;3.83;3.53;;;23.80;1.00;;;;;;6222226;23;20413;-87
2023/07/24 08:21:48;;;;;;;4.03;3.73;;;23.80;1.00;;;;;;6229932;23;20414;-86
2023/07/24 08:24:15;;;;;;;3.10;2.80;;;23.90;1.00;;;;;;6234137;23;20414;-87
2023/07/24 08:26:42;;;;;;;2.43;2.27;;;24.00;1.00;;;;;;6225465;23;20473;-86
2023/07/24 08:29:09;;;;;;;2.27;2.07;;;23.90;1.00;;;;;;6232555;23;20390;-87
2023/07/24 08:31:36;;;;;;;2.73;2.30;;;23.60;99.90;;;;;;6244832;23;20414;-85
2023/07/24 08:34:03;;;;;;;3.40;3.10;;;24.00;1.00;;;;;;6244688;23;20466;-86
2023/07/24 08:36:31;;;;;;;3.53;2.33;;;24.00;1.00;;;;;;6243982;23;20399;-86
2023/07/24 08:38:58;;;;;;;5.43;2.63;;;24.10;1.00;;;;;;6217182;23;20398;-86
2023/07/24 08:41:27;;;;;;;4.20;3.17;;;24.30;99.90;;;;;;6242596;23;20418;-86
2023/07/24 08:43:54;;;;;;;2.90;2.67;;;24.00;92.40;;;;;;6225815;23;20446;-87
2023/07/24 08:46:22;;;;;;;2.93;2.73;;;24.10;1.00;;;;;;6223528;23;20414;-86
2023/07/24 08:48:49;;;;;;;3.40;2.17;;;24.20;1.00;;;;;;6221384;23;20497;-87
2023/07/24 08:51:18;;;;;;;2.90;2.40;;;24.10;1.00;;;;;;6221592;23;20525;-87
2023/07/24 08:53:47;;;;;;;2.40;2.20;;;24.20;1.00;;;;;;6221974;23;20406;-86
2023/07/24 08:56:14;;;;;;;3.83;2.40;;;24.20;1.00;;;;;;6227592;23;20422;-86
2023/07/24 08:58:41;;;;;;;1.90;1.80;;;24.30;1.00;;;;;;6223870;23;20465;-86
2023/07/24 09:01:08;;;;;;;2.63;2.43;;;24.40;1.00;;;;;;6222398;23;20410;-87
2023/07/24 09:03:36;;;;;;;2.10;2.00;;;24.40;1.00;;;;;;6225667;23;20908;-87
2023/07/24 09:06:03;;;;;;;4.13;3.17;;;24.50;1.00;;;;;;6221975;23;20494;-87
2023/07/24 09:08:31;;;;;;;2.63;2.43;;;24.50;1.00;;;;;;6221289;23;20391;-87
2023/07/24 09:11:00;;;;;;;2.80;2.03;;;24.20;56.90;;;;;;6221278;23;20442;-88
2023/07/24 09:13:28;;;;;;;5.07;1.97;;;23.40;1.00;;;;;;6222789;23;20421;-87
2023/07/24 09:15:55;;;;;;;2.50;2.30;;;24.70;1.00;;;;;;6222107;23;20414;-87
2023/07/24 09:18:23;;;;;;;1.83;1.67;;;24.70;1.00;;;;;;6223428;23;20774;-86
2023/07/24 09:20:50;;;;;;;2.80;2.60;;;24.90;1.00;;;;;;6224710;23;20517;-86
2023/07/24 09:23:27;;;;;;;2.80;2.60;;;24.90;1.00;;;;;;6233236;23;20493;-87
2023/07/24 09:25:55;;;;;;;3.23;2.57;;;24.90;1.00;;;;;;6232817;23;20833;-87
2023/07/24 09:28:23;;;;;;;3.27;3.07;;;24.90;1.00;;;;;;6228774;23;20414;-88
2023/07/24 09:30:55;;;;;;;3.70;2.63;;;25.00;1.00;;;;;;6227049;23;20526;-87
2023/07/24 09:33:23;;;;;;;2.87;2.53;;;24.90;1.00;;;;;;6222273;23;20518;-86
2023/07/24 09:35:59;;;;;;;3.10;2.90;;;25.00;1.00;;;;;;6222468;23;20909;-87
2023/07/24 09:38:26;;;;;;;2.60;2.40;;;;;;;;;;6226159;23;20387;-87
2023/07/24 09:40:55;;;;;;;4.43;2.47;;;24.90;1.00;;;;;;6226455;23;20437;-88
2023/07/24 09:43:30;;;;;;;3.00;2.80;;;24.90;1.00;;;;;;6225450;23;20434;-87
2023/07/24 09:45:58;;;;;;;3.43;2.40;;;25.10;1.00;;;;;;6222465;23;20371;-88
2023/07/24 09:48:27;;;;;;;3.03;2.73;;;25.00;1.00;;;;;;6220899;23;20438;-87
2023/07/24 09:50:55;;;;;;;2.60;2.40;;;25.30;1.00;;;;;;6220870;23;20469;-87
2023/07/24 09:53:27;;;;;;;2.50;2.30;;;25.00;1.00;;;;;;6221993;23;20425;-87
2023/07/24 09:56:02;;;;;;;2.47;2.27;;;25.20;1.00;;;;;;6229989;23;20414;-87
2023/07/24 09:58:33;;;;;;;3.20;2.90;;;25.30;1.00;;;;;;6223230;23;20458;-87
2023/07/24 10:01:00;;;;;;;2.80;2.53;;;25.40;1.00;;;;;;6226577;23;20453;-89
2023/07/24 10:03:28;;;;;;;5.93;2.47;;;25.30;1.00;;;;;;6223682;23;21004;-88
2023/07/24 10:05:55;;;;;;;5.67;3.20;;;;;;;;;;6224530;23;20487;-88
2023/07/24 10:08:23;;;;;;;2.80;2.33;;;25.50;1.00;;;;;;6222486;23;20406;-88
2023/07/24 10:10:52;;;;;;;6.07;2.47;;;25.50;1.00;;;;;;6220560;23;20469;-88
2023/07/24 10:13:19;;;;;;;3.23;2.97;;;25.50;1.00;;;;;;6221216;23;20430;-89
2023/07/24 10:15:49;;;;;;;2.90;2.17;;;25.50;1.00;;;;;;6221353;23;20410;-89
2023/07/24 10:18:17;;;;;;;7.60;2.70;;;25.60;1.00;;;;;;6220823;23;20409;-88
2023/07/24 10:20:44;;;;;;;3.73;3.43;;;25.50;1.00;;;;;;6221332;23;20406;-87
2023/07/24 10:23:12;;;;;;;2.93;2.63;;;25.50;99.90;;;;;;6226061;23;20434;-86
2023/07/24 10:25:41;;;;;;;5.23;2.80;;;25.60;1.00;;;;;;6222119;23;20430;-87
2023/07/24 10:28:10;;;;;;;3.43;3.13;;;25.60;99.90;;;;;;6222706;23;20402;-87
2023/07/24 10:30:38;;;;;;;3.13;2.83;;;25.60;1.00;;;;;;6225128;23;20442;-87
2023/07/24 10:33:11;;;;;;;2.90;2.47;;;25.70;1.00;;;;;;6224818;23;20491;-87
2023/07/24 10:35:39;;;;;;;2.97;2.73;;;25.40;26.90;;;;;;6224737;23;20387;-87
2023/07/24 10:38:06;;;;;;;6.80;5.10;;;25.70;99.90;;;;;;6229526;23;20721;-87
2023/07/24 10:40:36;;;;;;;2.93;2.63;;;25.80;8.20;;;;;;6230664;23;20441;-87
2023/07/24 10:43:06;;;;;;;4.90;3.53;;;25.80;1.00;;;;;;6242997;23;20431;-87
2023/07/24 10:45:46;;;;;;;5.60;5.10;;;25.80;99.90;;;;;;6224475;23;20452;-87
2023/07/24 10:48:15;;;;;;;4.73;3.90;;;25.90;99.90;;;;;;6221143;23;20455;-87
2023/07/24 10:50:43;;;;;;;4.67;4.23;;;25.80;99.90;;;;;;6238112;23;20442;-87
2023/07/24 10:53:11;;;;;;;4.83;4.07;;;25.80;99.90;;;;;;6225861;23;20489;-87
2023/07/24 10:55:38;;;;;;;7.00;4.13;;;25.80;99.90;;;;;;6223874;23;20489;-87
2023/07/24 10:58:05;;;;;;;6.90;5.10;;;25.90;99.90;;;;;;6224045;23;20406;-88
2023/07/24 11:00:32;;;;;;;5.00;3.97;;;26.00;1.00;;;;;;6229217;23;20426;-88
2023/07/24 11:02:59;;;;;;;4.60;4.10;;;26.00;99.90;;;;;;6231099;23;20509;-88
2023/07/24 11:05:27;;;;;;;6.57;4.30;;;26.10;99.90;;;;;;6222191;23;20972;-87
2023/07/24 11:07:55;;;;;;;4.40;4.00;;;26.10;99.90;;;;;;6222697;23;20444;-87
2023/07/24 11:10:23;;;;;;;5.53;4.93;;;26.20;99.90;;;;;;6220844;23;20444;-87
2023/07/24 11:12:51;;;;;;;4.83;3.80;;;26.20;99.90;;;;;;6228532;23;20433;-86
2023/07/24 11:15:26;;;;;;;4.20;3.50;;;26.40;99.90;;;;;;6240386;23;20404;-88
2023/07/24 11:17:52;;;;;;;4.90;4.40;;;26.30;1.00;;;;;;6238878;23;20465;-87
2023/07/24 11:20:20;;;;;;;6.80;6.20;;;26.60;99.90;;;;;;6229949;23;20441;-87
2023/07/24 11:22:48;;;;;;;5.73;4.53;;;26.70;99.90;;;;;;6223706;23;20445;-87
2023/07/24 11:25:15;;;;;;;8.30;4.77;;;26.70;99.90;;;;;;6221217;23;20944;-88
2023/07/24 11:27:44;;;;;;;5.40;4.87;;;26.90;99.90;;;;;;6220983;23;20418;-88
2023/07/24 11:30:12;;;;;;;9.37;5.50;;;26.90;99.90;;;;;;6221333;23;20453;-87
2023/07/24 11:32:40;;;;;;;3.83;3.43;;;26.80;99.90;;;;;;6225084;23;20509;-87
2023/07/24 11:35:09;;;;;;;5.60;5.03;;;26.80;99.90;;;;;;6241310;23;20410;-88
2023/07/24 11:37:36;;;;;;;5.17;4.30;;;26.70;99.90;;;;;;6243195;23;20418;-87
2023/07/24 11:40:09;;;;;;;7.83;5.10;;;26.70;99.90;;;;;;6243962;23;20470;-87
2023/07/24 11:42:40;;;;;;;7.07;4.20;;;26.60;99.90;;;;;;6228712;23;20427;-87
2023/07/24 11:45:09;;;;;;;7.00;5.57;;;26.50;99.90;;;;;;6222392;23;20485;-88
2023/07/24 11:47:46;;;;;;;4.73;4.10;;;26.50;99.90;;;;;;6222130;23;20753;-87
2023/07/24 11:50:20;;;;;;;9.03;5.27;;;26.60;99.90;;;;;;6221658;23;20382;-87
2023/07/24 11:52:49;;;;;;;5.63;4.13;;;26.50;99.90;;;;;;6222497;23;20509;-87
2023/07/24 11:55:19;;;;;;;5.67;4.87;;;26.50;99.90;;;;;;6224961;23;20441;-87
2023/07/24 11:57:57;;;;;;;6.10;5.20;;;26.50;99.90;;;;;;6233058;23;20410;-86
2023/07/24 12:00:24;;;;;;;6.60;5.47;;;26.40;99.90;;;;;;6242679;23;20430;-87
2023/07/24 12:02:52;;;;;;;6.87;5.47;;;26.40;99.90;;;;;;6242984;23;20407;-86
2023/07/24 12:05:18;;;;;;;6.37;5.33;;;26.50;99.90;;;;;;6227044;23;20445;-86
2023/07/24 12:07:46;;;;;;;7.20;5.60;;;26.60;99.90;;;;;;6221278;23;20525;-87
2023/07/24 12:10:14;;;;;;;5.50;4.73;;;26.70;99.90;;;;;;6220962;23;20433;-87
2023/07/24 12:12:45;;;;;;;5.43;4.70;;;26.60;99.90;;;;;;6222256;23;20801;-87
2023/07/24 12:15:13;;;;;;;6.20;4.73;;;26.50;99.90;;;;;;6231477;23;20394;-86
2023/07/24 12:17:41;;;;;;;5.17;4.20;;;;;;;;;;6228413;23;20430;-86
2023/07/24 12:20:10;;;;;;;5.67;4.63;;;26.30;99.90;;;;;;6221494;23;20410;-86
2023/07/24 12:22:37;;;;;;;9.20;4.57;;;26.20;99.90;;;;;;6235300;23;20794;-87
2023/07/24 12:25:04;;;;;;;5.20;4.27;;;26.10;99.90;;;;;;6242463;23;20405;-86
2023/07/24 12:27:32;;;;;;;6.17;4.23;;;25.90;99.90;;;;;;6226645;23;20402;-87
2023/07/24 12:30:01;;;;;;;6.43;3.80;;;26.00;99.90;;;;;;6222887;23;20740;-87
2023/07/24 12:32:28;;;;;;;7.93;5.00;;;26.00;99.90;;;;;;6222661;23;20453;-87
2023/07/24 12:34:55;;;;;;;4.03;3.37;;;25.90;99.90;;;;;;6221712;23;20928;-87
2023/07/24 12:37:22;;;;;;;4.50;4.10;;;25.70;99.90;;;;;;6222733;23;20457;-88
2023/07/24 12:39:50;;;;;;;5.60;4.53;;;25.50;99.90;;;;;;6225190;23;20460;-87
2023/07/24 12:42:17;;;;;;;6.27;4.83;;;25.20;99.90;;;;;;6239128;23;20434;-87
2023/07/24 12:44:44;;;;;;;5.43;4.30;;;25.00;99.90;;;;;;6236246;23;20414;-87
2023/07/24 12:47:13;;;;;;;4.63;4.10;;;24.80;99.90;;;;;;6228811;23;20407;-87
2023/07/24 12:49:40;;;;;;;4.50;4.10;;;24.60;99.90;;;;;;6227195;23;20470;-87
2023/07/24 12:52:07;;;;;;;6.50;3.80;;;24.60;1.00;;;;;;6244454;23;20450;-88
2023/07/24 12:54:34;;;;;;;4.73;3.70;;;24.60;99.90;;;;;;6231817;23;20492;-88
2023/07/24 12:57:01;;;;;;;6.73;3.93;;;24.70;1.00;;;;;;6224314;23;20425;-87
2023/07/24 12:59:28;;;;;;;5.50;3.73;;;24.60;99.90;;;;;;6222911;23;20429;-88
2023/07/24 13:01:55;;;;;;;4.57;3.80;;;24.20;1.00;;;;;;6224175;23;20426;-88
2023/07/24 13:04:24;;;;;;;5.13;4.10;;;24.30;99.90;;;;;;6226854;23;20493;-88
2023/07/24 13:06:51;;;;;;;6.90;3.70;;;24.30;1.00;;;;;;6229733;23;20430;-87
2023/07/24 13:09:19;;;;;;;5.53;3.47;;;24.20;1.00;;;;;;6232437;23;20410;-87
2023/07/24 13:11:48;;;;;;;4.47;3.47;;;24.00;1.00;;;;;;6230108;23;20446;-87
2023/07/24 13:14:15;;;;;;;3.40;3.10;;;23.90;1.00;;;;;;6227239;23;20420;-88
2023/07/24 13:16:42;;;;;;;4.30;3.53;;;23.80;1.00;;;;;;6224548;23;20437;-88
2023/07/24 13:19:09;;;;;;;7.20;5.73;;;23.50;1.00;;;;;;6238689;23;20908;-88
2023/07/24 13:21:37;;;;;;;5.07;4.00;;;23.10;99.90;;;;;;6242623;23;20394;-87
2023/07/24 13:24:04;;;;;;;4.40;3.47;;;23.50;1.00;;;;;;6244818;23;20426;-86
2023/07/24 13:26:31;;;;;;;5.10;3.53;;;23.60;1.00;;;;;;6232335;23;20430;-87
2023/07/24 13:28:58;;;;;;;6.20;3.80;;;23.70;1.00;;;;;;6225514;23;20457;-88